Risultati

Download risultati: TXT, XML IOF

Coppa Italia 1° pr.
categoria: M60 - lunghezza: 2710mt - dislivello: 0mt
pos. cat. tempo Nome società p. LB p. CITA vel.
1M60 *00:12:18BALBONI MassimoA.S.D. ORIENTEERING CLUB ...20.000:04:3200:12:18|2710|0|12.30
2M60 *00:12:29CURZIO LeonardoORIENTAMONDO IVREA ASD17.000:04:3600:12:29|2710|0|12.48
3M60 *00:14:43BELLÒ GregorioA.S.D MISQUILENSES ORIENT...14.000:05:2500:14:43|2710|0|14.72
4M60 *00:15:02PEGORER EnzoORIENTEERING TREVISO A.S....12.000:05:3200:15:02|2710|0|15.03
5M60 *00:15:11CAVAZZANI AugustoORIENTEERING PERGINE A.S....11.000:05:3600:15:11|2710|0|15.18
5M60 *00:15:11BAZAN FrancescoORIENTEERING TREVISO A.S....11.000:05:3600:15:11|2710|0|15.18
7M60 *00:15:14MAFFEI LuigiA.D. TRENT-O9.000:05:3700:15:14|2710|0|15.23
8M60 *00:15:24RAMAZZA StefanoPOLISPORTIVA 'G. MASI'8.000:05:4000:15:24|2710|0|15.40
9M60 *00:15:26CONCI AlessandroORIENTEERING CREA ROSSA A...7.000:05:4100:15:26|2710|0|15.43
10M60 *00:16:14BATTISTONI LucaVARESE ORIENTEERING ASD6.000:05:5900:16:14|2710|0|16.23
11M60 *00:16:17VILLA RobertoA.S.D. POLISPORTIVA BESAN...5.000:06:0000:16:17|2710|0|16.28
11M60 *00:16:17VARPONI RiccardoORIENTEERING SWALLOWS NOA...5.000:06:0000:16:17|2710|0|16.28
13M60 *00:16:30ZANELLA LuiginoC.U.S. TORINO3.000:06:0500:16:30|2710|0|16.50
14M60 *00:16:40ORLER Melchiorre LinoU.S. PRIMIERO A.S.D.2.000:06:0900:16:40|2710|0|16.67
15M60 *00:16:44FAETANINI GiovanniCRAL G.T.T.1.000:06:1000:16:44|2710|0|16.73
16M60 *00:17:09MAZZUCCO WalterORIENTEERING DOLOMITI ASD1.000:06:1900:17:09|2710|0|17.15
17M60 *00:17:29GHIRARDI MassimoOPK Miraflores ASD1.000:06:2700:17:29|2710|0|17.48
18M60 *00:18:22CACCAMISI DarioERIDANO ADVENTURE a.s.d1.000:06:4600:18:22|2710|0|18.37
19M60 *00:21:19CHECCHIN VittorianoA.S.D. Orienteering Lagun...1.000:07:5200:21:19|2710|0|21.32
NPM60 *00:00:00BARACANI OrianoASDS CARCHIDIO-STROCCHI0:00:0000:00:00|2710|0|0.00
NPM60 *00:00:00BETTEGA AdrianoA.S.D. G.S. PAVIONE0:00:0000:00:00|2710|0|0.00
PMM60 *00:37:51POZZERLE LucioA.S.D. ORIENT EXPRESS VER...0:13:5800:37:51|2710|0|37.85
Risultati per pagina:

PARTNER UFFICIALI FISO